Time;durP1;ratioP1;P1;durP2;ratioP2;P2;SDS_P1;SDS_P2;PMS_P1;PMS_P2;Temp;Humidity;BMP_temperature;BMP_pressure;BME280_temperature;BME280_humidity;BME280_pressure;Samples;Min_cycle;Max_cycle;Signal;HPM_P1;HPM_P2
2021/01/11 00:00:11;;;;;;;10.57;7.27;;;;;;;-0.82;84.88;100555.62;1747949;79;21105;-93
2021/01/11 00:03:21;;;;;;;14.98;8.40;;;;;;;-0.82;84.82;100552.19;1786342;79;21080;-93
2021/01/11 00:06:09;;;;;;;11.73;7.20;;;;;;;-0.82;84.63;100545.83;1837084;74;22370;-94
2021/01/11 00:08:48;;;;;;;13.70;7.23;;;;;;;-0.89;84.60;100530.77;1754656;78;21134;-96
2021/01/11 00:11:42;;;;;;;12.90;7.62;;;;;;;-0.90;84.58;100529.04;1760299;77;21443;-87
2021/01/11 00:34:38;;;;;;;11.83;7.57;;;;;;;-1.10;84.85;100540.95;1789551;76;22170;-93
2021/01/11 00:45:09;;;;;;;11.90;8.13;;;;;;;-1.07;84.75;100553.77;1683869;82;21144;-93
2021/01/11 00:47:43;;;;;;;12.47;7.47;;;;;;;-1.14;84.00;100545.86;1642898;85;21259;-92
2021/01/11 00:50:15;;;;;;;10.37;6.67;;;;;;;-1.17;84.10;100545.73;1689099;82;21134;-92
2021/01/11 00:53:18;;;;;;;9.33;6.87;;;;;;;-1.20;84.01;100545.20;1689419;83;21212;-92
2021/01/11 00:56:17;;;;;;;10.10;7.13;;;;;;;-1.25;83.85;100544.99;1691710;83;21141;-93
2021/01/11 00:59:05;;;;;;;11.27;7.93;;;;;;;-1.32;83.87;100550.62;1697850;83;21116;-91
2021/01/11 01:01:50;;;;;;;11.27;7.20;;;;;;;-1.36;83.93;100546.23;1693333;83;21224;-92
2021/01/11 01:04:34;;;;;;;11.27;7.37;;;;;;;-1.39;83.97;100556.67;1726552;78;21141;-91
2021/01/11 01:14:13;;;;;;;14.13;8.03;;;;;;;-1.58;84.51;100562.23;1689002;80;21145;-93
2021/01/11 01:17:10;;;;;;;12.20;7.80;;;;;;;-1.63;84.67;100556.11;1649183;82;21126;-92
2021/01/11 01:43:34;;;;;;;12.73;8.47;;;;;;;-1.96;86.38;100558.08;1737132;80;21333;-91
2021/01/11 01:46:24;;;;;;;17.47;9.67;;;;;;;-2.01;86.74;100557.85;1722878;81;21065;-93
2021/01/11 01:49:24;;;;;;;18.43;9.60;;;;;;;-2.03;86.99;100560.70;1757866;81;21121;-93
2021/01/11 01:52:14;;;;;;;15.50;9.03;;;;;;;-2.05;87.16;100564.00;1758150;78;21120;-93
2021/01/11 01:55:11;;;;;;;15.90;9.90;;;;;;;-2.09;87.46;100566.80;1742602;78;21150;-93
2021/01/11 01:58:18;;;;;;;16.17;10.10;;;;;;;-2.10;87.73;100570.52;1708623;79;21103;-92
2021/01/11 02:01:08;;;;;;;13.53;8.87;;;;;;;-2.16;87.84;100574.53;1767459;79;21129;-93
2021/01/11 02:03:45;;;;;;;14.53;9.97;;;;;;;-2.22;88.15;100575.52;1704143;80;21205;-92
2021/01/11 02:10:15;;;;;;;16.07;9.13;;;;;;;-2.20;88.33;100589.52;1730384;79;21197;31
2021/01/11 02:22:36;;;;;;;15.67;8.97;;;;;;;-2.17;88.57;100590.92;1765380;76;21185;-92
2021/01/11 02:25:52;;;;;;;17.13;9.27;;;;;;;-2.12;88.52;100589.48;1693671;82;21150;-92
2021/01/11 02:29:29;;;;;;;15.13;8.47;;;;;;;-2.06;88.43;100579.61;1702996;82;21631;-94
2021/01/11 02:32:06;;;;;;;12.73;8.27;;;;;;;-1.97;88.59;100580.00;1701870;82;21146;-93
2021/01/11 02:34:58;;;;;;;16.20;8.60;;;;;;;-1.84;88.34;100574.20;1690324;82;21151;-93
2021/01/11 02:37:28;;;;;;;17.33;9.87;;;;;;;-1.75;88.20;100570.80;1679553;82;21150;-92
2021/01/11 02:40:00;;;;;;;15.73;9.10;;;;;;;-1.66;88.06;100570.80;1687897;82;21501;-93
2021/01/11 02:42:32;;;;;;;22.33;10.53;;;;;;;-1.56;88.01;100569.92;1663762;80;21268;-94
2021/01/11 02:45:41;;;;;;;15.23;9.57;;;;;;;-1.48;87.75;100560.54;1695453;81;21258;-92
2021/01/11 02:48:54;;;;;;;19.13;10.77;;;;;;;-1.36;87.62;100550.45;1687733;82;21123;-91
2021/01/11 02:52:04;;;;;;;20.77;11.03;;;;;;;-1.27;87.28;100548.30;1679702;82;21146;-93
2021/01/11 02:54:39;;;;;;;19.73;11.30;;;;;;;-1.19;86.94;100538.03;1680409;82;21104;-93
2021/01/11 02:58:07;;;;;;;17.30;9.60;;;;;;;-1.10;86.80;100533.33;1704247;77;21435;-93
2021/01/11 03:01:03;;;;;;;15.73;9.73;;;;;;;-1.05;86.28;100529.28;1738909;78;21246;-92
2021/01/11 03:03:37;;;;;;;17.67;8.63;;;;;;;-1.01;86.10;100532.44;1777471;78;21126;-92
2021/01/11 03:06:31;;;;;;;18.77;11.53;;;;;;;-0.97;85.97;100530.88;1699519;81;21256;-93
2021/01/11 03:09:10;;;;;;;16.93;9.60;;;;;;;-0.91;85.80;100527.72;1727337;78;21135;-92
2021/01/11 03:18:33;;;;;;;16.03;9.97;;;;;;;-0.84;85.24;100536.90;1690819;82;21103;-91
2021/01/11 03:21:31;;;;;;;21.43;9.13;;;;;;;-0.79;85.03;100541.73;1661915;83;21173;-92
2021/01/11 03:40:58;;;;;;;16.73;9.17;;;;;;;-0.71;83.65;100558.57;1705783;79;21552;31
2021/01/11 03:43:57;;;;;;;16.00;9.23;;;;;;;-0.64;83.48;100556.72;1673245;83;21151;-94
2021/01/11 03:46:49;;;;;;;13.53;9.40;;;;;;;-0.56;83.11;100555.73;1651519;84;21191;-93
2021/01/11 03:49:27;;;;;;;15.70;10.10;;;;;;;-0.50;82.90;100554.29;1624704;86;21149;-93
2021/01/11 03:52:05;;;;;;;18.90;10.67;;;;;;;-0.44;82.53;100557.48;1648771;85;21201;-93
2021/01/11 03:54:57;;;;;;;18.27;11.00;;;;;;;-0.40;82.10;100565.67;1667205;84;21297;-93
2021/01/11 03:57:51;;;;;;;15.77;10.10;;;;;;;-0.38;81.69;100570.83;1639774;85;21346;-94
2021/01/11 04:01:13;;;;;;;16.30;9.87;;;;;;;-0.40;81.27;100565.67;1684713;83;21142;-95
2021/01/11 04:04:24;;;;;;;16.20;9.87;;;;;;;-0.46;81.29;100565.44;1666165;85;21153;-92
2021/01/11 04:07:17;;;;;;;31.50;13.70;;;;;;;-0.48;81.01;100570.48;1667506;83;21142;-93
2021/01/11 04:09:49;;;;;;;19.67;12.30;;;;;;;-0.52;80.97;100573.72;1736403;82;21124;-92
2021/01/11 04:12:20;;;;;;;15.83;10.73;;;;;;;-0.56;80.83;100576.92;1674337;84;21138;-92
2021/01/11 04:14:52;;;;;;;14.87;8.50;;;;;;;-0.62;80.92;100582.17;1753469;80;21116;-92
2021/01/11 04:17:39;;;;;;;14.53;8.90;;;;;;;-0.69;80.98;100581.07;1737789;81;21107;-93
2021/01/11 04:20:16;;;;;;;13.60;8.53;;;;;;;-0.69;81.12;100587.42;1682954;83;21179;-94
2021/01/11 04:23:24;;;;;;;11.97;8.23;;;;;;;-0.65;81.01;100590.98;1737021;81;21191;-92
2021/01/11 04:25:59;;;;;;;15.70;8.83;;;;;;;-0.68;80.66;100592.98;1723655;82;21110;-92
2021/01/11 04:28:47;;;;;;;13.53;8.07;;;;;;;-0.69;80.76;100589.10;1722804;79;21185;-92
2021/01/11 04:31:41;;;;;;;14.57;9.23;;;;;;;-0.63;80.83;100595.70;1736394;80;21216;-92
2021/01/11 04:40:21;;;;;;;24.57;15.70;;;;;;;-0.78;81.16;100582.00;1757023;80;21141;-93
